createdAt,value
2023-03-19T00:02:19.649Z,97274.17
2023-03-19T00:04:49.128Z,97274.25
2023-03-19T00:10:00.762Z,97277.27
2023-03-19T00:12:29.278Z,97279.30
2023-03-19T00:14:57.613Z,97278.63
2023-03-19T00:17:25.886Z,97273.20
2023-03-19T00:19:54.093Z,97275.05
2023-03-19T00:22:22.427Z,97276.80
2023-03-19T00:24:50.627Z,97277.30
2023-03-19T00:27:18.916Z,97274.90
2023-03-19T00:29:49.392Z,97275.39
2023-03-19T00:32:18.635Z,97275.83
2023-03-19T00:34:47.814Z,97273.63
2023-03-19T00:37:18.360Z,97273.16
2023-03-19T00:39:46.617Z,97276.80
2023-03-19T00:42:16.904Z,97276.79
2023-03-19T00:44:45.259Z,97273.65
2023-03-19T00:47:13.603Z,97272.04
2023-03-19T00:49:41.937Z,97267.66
2023-03-19T00:52:10.606Z,97263.66
2023-03-19T00:54:38.785Z,97267.06
2023-03-19T00:57:07.213Z,97264.93
2023-03-19T00:59:35.642Z,97264.41
2023-03-19T01:02:04.788Z,97263.67
2023-03-19T01:04:32.990Z,97257.71
2023-03-19T01:07:07.612Z,97258.54
2023-03-19T01:09:36.380Z,97263.83
2023-03-19T01:12:05.046Z,97259.25
2023-03-19T01:14:39.413Z,97261.15
2023-03-19T01:17:08.513Z,97257.08
2023-03-19T01:19:36.891Z,97253.54
2023-03-19T01:22:05.336Z,97256.27
2023-03-19T01:24:35.368Z,97257.38
2023-03-19T01:27:03.964Z,97257.13
2023-03-19T01:29:36.918Z,97255.98
2023-03-19T01:32:31.460Z,97259.75
2023-03-19T01:35:16.954Z,97260.39
2023-03-19T01:37:45.564Z,97258.15
2023-03-19T01:40:15.127Z,97259.08
2023-03-19T01:43:18.570Z,97261.89
2023-03-19T01:46:37.225Z,97260.73
2023-03-19T01:49:31.956Z,97256.52
2023-03-19T01:52:15.881Z,97256.54
2023-03-19T01:55:13.604Z,97255.70
2023-03-19T01:58:10.751Z,97257.67
2023-03-19T02:00:58.746Z,97258.27
2023-03-19T02:03:27.678Z,97257.96
2023-03-19T02:06:13.700Z,97252.11
2023-03-19T02:08:42.649Z,97257.45
2023-03-19T02:11:11.284Z,97259.41
2023-03-19T02:13:39.910Z,97254.16
2023-03-19T02:16:08.873Z,97252.35
2023-03-19T02:18:37.594Z,97256.38
2023-03-19T02:21:14.779Z,97262.29
2023-03-19T02:24:03.699Z,97258.10
2023-03-19T02:26:47.459Z,97257.88
2023-03-19T02:29:15.956Z,97254.30
2023-03-19T02:31:46.399Z,97256.41
2023-03-19T02:34:21.402Z,97256.63
2023-03-19T02:37:00.844Z,97256.59
2023-03-19T02:39:52.377Z,97259.80
2023-03-19T02:42:23.469Z,97261.25
2023-03-19T02:44:55.517Z,97261.26
2023-03-19T02:47:29.569Z,97262.30
2023-03-19T02:49:57.707Z,97262.96
2023-03-19T02:52:27.055Z,97261.50
2023-03-19T02:54:55.772Z,97261.40
2023-03-19T02:57:30.242Z,97269.20
2023-03-19T02:59:58.586Z,97274.16
2023-03-19T03:02:27.544Z,97278.36
2023-03-19T03:04:56.047Z,97280.06
2023-03-19T03:07:27.325Z,97279.66
2023-03-19T03:09:59.651Z,97283.73
2023-03-19T03:12:27.974Z,97279.61
2023-03-19T03:17:46.130Z,97282.39
2023-03-19T03:20:17.796Z,97290.08
2023-03-19T03:22:47.207Z,97285.22
2023-03-19T03:25:19.657Z,97285.05
2023-03-19T03:27:49.231Z,97284.38
2023-03-19T03:30:17.621Z,97284.20
2023-03-19T03:32:45.965Z,97286.95
2023-03-19T03:35:22.070Z,97291.45
2023-03-19T03:37:51.573Z,97289.77
2023-03-19T03:40:20.701Z,97297.38
2023-03-19T03:42:49.660Z,97301.32
2023-03-19T03:45:19.205Z,97304.01
2023-03-19T03:47:47.694Z,97302.38
2023-03-19T03:50:17.131Z,97299.85
2023-03-19T03:52:45.684Z,97299.56
2023-03-19T03:55:14.278Z,97301.36
2023-03-19T03:57:42.536Z,97303.92
2023-03-19T04:00:12.796Z,97301.30
2023-03-19T04:02:46.021Z,97297.69
2023-03-19T04:05:28.803Z,97297.11
2023-03-19T04:07:57.695Z,97299.30
2023-03-19T04:10:27.177Z,97303.04
2023-03-19T04:12:56.057Z,97299.31
2023-03-19T04:15:24.442Z,97301.75
2023-03-19T04:17:53.225Z,97306.19
2023-03-19T04:20:23.879Z,97305.66
2023-03-19T04:22:52.464Z,97305.42
2023-03-19T04:25:20.866Z,97303.95
2023-03-19T04:27:49.259Z,97304.98
2023-03-19T04:30:17.566Z,97307.23
2023-03-19T04:32:46.669Z,97304.33
2023-03-19T04:35:15.753Z,97301.66
2023-03-19T04:37:48.808Z,97299.77
2023-03-19T04:40:21.142Z,97299.02
2023-03-19T04:42:49.896Z,97295.31
2023-03-19T04:45:32.649Z,97294.89
2023-03-19T04:48:01.932Z,97292.89
2023-03-19T04:50:37.132Z,97286.73
2023-03-19T04:53:17.799Z,97288.30
2023-03-19T04:55:47.352Z,97286.10
2023-03-19T04:58:19.155Z,97287.00
2023-03-19T05:00:52.703Z,97291.98
2023-03-19T05:03:23.987Z,97289.26
2023-03-19T05:05:55.013Z,97289.10
2023-03-19T05:08:23.715Z,97298.58
2023-03-19T05:10:52.210Z,97302.05
2023-03-19T05:13:21.772Z,97300.36
2023-03-19T05:15:54.346Z,97304.03
2023-03-19T05:18:23.667Z,97300.94
2023-03-19T05:20:55.791Z,97300.27
2023-03-19T05:23:24.484Z,97302.13
2023-03-19T05:26:08.716Z,97303.59
2023-03-19T05:29:16.172Z,97303.25
2023-03-19T05:31:57.711Z,97303.42
2023-03-19T05:34:26.053Z,97303.80
2023-03-19T05:37:01.916Z,97297.58
2023-03-19T05:39:30.314Z,97298.33
2023-03-19T05:42:02.181Z,97300.03
2023-03-19T05:44:31.430Z,97300.88
2023-03-19T05:47:27.589Z,97296.53
2023-03-19T05:49:58.144Z,97296.68
2023-03-19T05:52:26.982Z,97297.35
2023-03-19T05:54:57.125Z,97295.73
2023-03-19T05:57:41.338Z,97300.05
2023-03-19T06:00:23.600Z,97301.70
2023-03-19T06:02:53.325Z,97303.22
2023-03-19T06:05:22.166Z,97307.86
2023-03-19T06:07:53.886Z,97308.27
2023-03-19T06:10:28.016Z,97311.65
2023-03-19T06:13:06.364Z,97311.66
2023-03-19T06:15:40.819Z,97313.31
2023-03-19T06:18:25.102Z,97310.92
2023-03-19T06:20:53.439Z,97316.17
2023-03-19T06:23:21.534Z,97311.91
2023-03-19T06:25:49.765Z,97315.50
2023-03-19T06:28:18.246Z,97317.00
2023-03-19T06:30:46.852Z,97317.81
2023-03-19T06:33:41.204Z,97315.77
2023-03-19T06:36:10.912Z,97316.45
2023-03-19T06:38:39.552Z,97308.67
2023-03-19T06:41:07.919Z,97308.00
2023-03-19T06:43:37.485Z,97306.14
2023-03-19T06:46:08.906Z,97302.42
2023-03-19T06:48:38.488Z,97303.54
2023-03-19T06:51:07.282Z,97298.80
2023-03-19T06:53:35.684Z,97297.11
2023-03-19T06:56:04.447Z,97294.95
2023-03-19T06:58:32.570Z,97294.70
2023-03-19T07:01:00.966Z,97298.08
2023-03-19T07:03:29.145Z,97293.21
2023-03-19T07:05:57.418Z,97286.07
2023-03-19T07:08:29.857Z,97288.36
2023-03-19T07:11:03.259Z,97288.08
2023-03-19T07:18:59.098Z,97296.59
2023-03-19T07:21:27.846Z,97291.17
2023-03-19T07:23:56.221Z,97291.23
2023-03-19T07:26:24.372Z,97287.17
2023-03-19T07:28:52.612Z,97281.29
2023-03-19T07:31:20.799Z,97279.80
2023-03-19T07:33:49.038Z,97284.02
2023-03-19T07:36:17.224Z,97281.12
2023-03-19T07:38:45.546Z,97280.02
2023-03-19T07:41:13.657Z,97281.98
2023-03-19T07:43:41.773Z,97285.37
2023-03-19T07:46:14.192Z,97287.42
2023-03-19T07:48:42.358Z,97287.42
2023-03-19T07:51:10.599Z,97284.02
2023-03-19T07:53:38.824Z,97278.66
2023-03-19T07:56:07.179Z,97281.78
2023-03-19T07:58:35.687Z,97281.85
2023-03-19T08:01:04.126Z,97281.07
2023-03-19T08:03:32.470Z,97279.07
2023-03-19T08:06:00.589Z,97279.14
2023-03-19T08:08:28.738Z,97280.27
2023-03-19T08:10:57.413Z,97278.52
2023-03-19T08:13:25.831Z,97277.16
2023-03-19T08:15:54.624Z,97278.52
2023-03-19T08:18:22.785Z,97282.64
2023-03-19T08:20:51.493Z,97282.50
2023-03-19T08:23:19.725Z,97280.49
2023-03-19T08:25:48.747Z,97278.48
2023-03-19T08:28:17.341Z,97275.89
2023-03-19T08:30:45.926Z,97276.55
2023-03-19T08:33:14.382Z,97275.46
2023-03-19T08:35:42.511Z,97273.65
2023-03-19T08:38:11.323Z,97271.49
2023-03-19T08:40:39.600Z,97271.29
2023-03-19T08:43:13.731Z,97267.31
2023-03-19T08:45:41.838Z,97268.35
2023-03-19T08:48:09.865Z,97261.05
2023-03-19T08:50:37.989Z,97261.67
2023-03-19T08:53:06.261Z,97266.77
2023-03-19T08:55:34.389Z,97267.68
2023-03-19T08:58:02.408Z,97264.29
2023-03-19T09:00:31.043Z,97263.77
2023-03-19T09:02:59.311Z,97258.06
2023-03-19T09:05:29.725Z,97254.27
2023-03-19T09:07:57.876Z,97255.55
2023-03-19T09:10:26.026Z,97248.95
2023-03-19T09:13:21.925Z,97246.47
2023-03-19T09:15:50.847Z,97239.95
2023-03-19T09:18:23.945Z,97239.14
2023-03-19T09:20:54.725Z,97239.02
2023-03-19T09:23:23.400Z,97229.87
2023-03-19T09:25:51.658Z,97227.86
2023-03-19T09:28:20.153Z,97229.92
2023-03-19T09:30:48.697Z,97231.83
2023-03-19T09:33:18.483Z,97231.61
2023-03-19T09:35:53.077Z,97226.52
2023-03-19T09:38:22.161Z,97227.55
2023-03-19T09:41:13.513Z,97224.20
2023-03-19T09:44:00.697Z,97215.72
2023-03-19T09:46:35.058Z,97213.91
2023-03-19T09:49:06.226Z,97214.37
2023-03-19T09:51:43.920Z,97213.01
2023-03-19T09:54:37.503Z,97216.59
2023-03-19T09:57:05.715Z,97215.10
2023-03-19T09:59:33.902Z,97210.45
2023-03-19T10:02:21.265Z,97207.81
2023-03-19T10:04:52.480Z,97207.67
2023-03-19T10:07:40.631Z,97207.68
2023-03-19T10:10:17.439Z,97205.13
2023-03-19T10:12:55.604Z,97203.57
2023-03-19T10:15:30.144Z,97203.69
2023-03-19T10:18:01.376Z,97209.95
2023-03-19T10:20:32.477Z,97210.48
2023-03-19T10:23:14.157Z,97208.20
2023-03-19T10:25:49.137Z,97200.54
2023-03-19T10:28:20.110Z,97198.58
2023-03-19T10:31:07.050Z,97193.07
2023-03-19T10:33:46.250Z,97185.84
2023-03-19T10:36:16.143Z,97179.98
2023-03-19T10:38:44.494Z,97184.33
2023-03-19T10:41:31.666Z,97175.48
2023-03-19T10:44:06.329Z,97175.56
2023-03-19T10:46:40.738Z,97176.15
2023-03-19T10:49:13.400Z,97172.39
2023-03-19T10:51:43.872Z,97168.70
2023-03-19T10:54:25.526Z,97162.20
2023-03-19T10:56:58.718Z,97156.63
2023-03-19T10:59:29.423Z,97149.61
2023-03-19T11:02:01.650Z,97148.80
2023-03-19T11:04:30.090Z,97143.77
2023-03-19T11:07:15.047Z,97137.39
2023-03-19T11:09:48.089Z,97130.86
2023-03-19T11:12:25.577Z,97128.91
2023-03-19T11:14:56.518Z,97124.77
2023-03-19T11:17:57.431Z,97122.25
2023-03-19T11:20:32.796Z,97122.06
2023-03-19T11:23:22.121Z,97113.48
2023-03-19T11:25:55.412Z,97108.91
2023-03-19T11:28:26.753Z,97100.64
2023-03-19T11:31:13.719Z,97096.23
2023-03-19T11:33:51.381Z,97095.81
2023-03-19T11:36:31.008Z,97092.59
2023-03-19T11:39:01.962Z,97098.30
2023-03-19T11:41:35.920Z,97094.17
2023-03-19T11:44:10.057Z,97089.58
2023-03-19T11:46:54.419Z,97092.73
2023-03-19T11:49:37.734Z,97086.80
2023-03-19T11:52:08.955Z,97087.41
2023-03-19T11:54:40.170Z,97085.83
2023-03-19T11:57:11.552Z,97087.27
2023-03-19T12:00:01.006Z,97086.91
2023-03-19T12:02:29.244Z,97086.42
2023-03-19T12:05:04.506Z,97081.89
2023-03-19T12:08:08.083Z,97081.21
2023-03-19T12:10:55.114Z,97069.33
2023-03-19T12:13:23.224Z,97068.91
2023-03-19T12:16:10.208Z,97063.44
2023-03-19T12:18:38.361Z,97060.88
2023-03-19T12:21:17.801Z,97056.78
2023-03-19T12:23:59.020Z,97054.95
2023-03-19T12:26:27.367Z,97052.97
2023-03-19T12:28:55.690Z,97042.61
2023-03-19T12:31:46.600Z,97040.95
2023-03-19T12:34:15.130Z,97033.12
2023-03-19T12:37:01.488Z,97029.13
2023-03-19T12:39:35.763Z,97026.83
2023-03-19T12:42:04.875Z,97024.90
2023-03-19T12:44:35.783Z,97030.61
2023-03-19T12:47:04.602Z,97029.13
2023-03-19T12:49:52.256Z,97012.87
2023-03-19T12:52:24.246Z,97013.56
2023-03-19T12:55:11.354Z,97009.97
2023-03-19T12:57:42.789Z,97014.95
2023-03-19T13:00:17.743Z,97018.11
2023-03-19T13:03:04.663Z,97014.87
2023-03-19T13:05:40.216Z,97007.52
2023-03-19T13:08:26.912Z,97001.00
2023-03-19T13:10:55.458Z,96999.65
2023-03-19T13:13:54.696Z,96986.52
2023-03-19T13:16:38.268Z,96990.02
2023-03-19T13:19:25.357Z,96984.16
2023-03-19T13:21:55.253Z,96978.80
2023-03-19T13:24:28.455Z,96976.98
2023-03-19T13:27:01.063Z,96974.59
2023-03-19T13:29:34.227Z,96968.82
2023-03-19T13:32:07.686Z,96966.00
2023-03-19T13:34:37.166Z,96967.15
2023-03-19T13:37:05.569Z,96959.03
2023-03-19T13:39:36.750Z,96952.98
2023-03-19T13:42:20.176Z,96951.02
2023-03-19T13:44:50.453Z,96945.95
2023-03-19T13:47:33.814Z,96940.33
2023-03-19T13:50:01.950Z,96937.70
2023-03-19T13:52:30.076Z,96933.80
2023-03-19T13:55:19.023Z,96929.08
2023-03-19T13:58:01.964Z,96928.09
2023-03-19T14:00:59.600Z,96927.30
2023-03-19T14:03:35.567Z,96924.66
2023-03-19T14:06:31.415Z,96921.69
2023-03-19T14:08:59.671Z,96919.40
2023-03-19T14:11:35.366Z,96919.09
2023-03-19T14:14:06.097Z,96919.13
2023-03-19T14:16:38.742Z,96916.92
2023-03-19T14:19:11.608Z,96911.04
2023-03-19T14:22:03.906Z,96907.95
2023-03-19T14:24:55.717Z,96909.83
2023-03-19T14:27:33.337Z,96912.50
2023-03-19T14:30:07.796Z,96911.27
2023-03-19T14:32:41.299Z,96905.59
2023-03-19T14:35:14.439Z,96902.55
2023-03-19T14:37:49.351Z,96900.50
2023-03-19T14:40:17.642Z,96896.41
2023-03-19T14:43:04.209Z,96891.77
2023-03-19T14:45:42.196Z,96887.96
2023-03-19T14:48:28.956Z,96886.85
2023-03-19T14:50:57.328Z,96888.37
2023-03-19T14:53:28.477Z,96883.35
2023-03-19T14:55:56.597Z,96885.30
2023-03-19T14:58:24.598Z,96884.73
2023-03-19T15:01:14.230Z,96881.17
2023-03-19T15:03:42.696Z,96887.64
2023-03-19T15:06:13.728Z,96886.34
2023-03-19T15:08:42.192Z,96884.36
2023-03-19T15:11:15.077Z,96884.46
2023-03-19T15:13:52.102Z,96881.35
2023-03-19T15:16:29.599Z,96880.58
2023-03-19T15:19:09.136Z,96878.66
2023-03-19T15:21:40.417Z,96887.48
2023-03-19T15:24:14.851Z,96883.94
2023-03-19T15:26:56.761Z,96885.91
2023-03-19T15:29:32.872Z,96887.21
2023-03-19T15:32:07.590Z,96886.89
2023-03-19T15:34:37.616Z,96887.52
2023-03-19T15:37:15.356Z,96890.75
2023-03-19T15:39:49.671Z,96892.73
2023-03-19T15:42:21.223Z,96896.26
2023-03-19T15:44:55.704Z,96894.42
2023-03-19T15:47:26.737Z,96895.31
2023-03-19T15:50:04.074Z,96898.00
2023-03-19T15:52:36.448Z,96898.21
2023-03-19T15:55:04.953Z,96900.72
2023-03-19T15:57:36.054Z,96900.14
2023-03-19T16:00:05.401Z,96897.78
2023-03-19T16:02:41.697Z,96899.86
2023-03-19T16:05:39.317Z,96903.17
2023-03-19T16:08:36.597Z,96907.46
2023-03-19T16:11:34.963Z,96914.45
2023-03-19T16:14:10.232Z,96916.45
2023-03-19T16:16:39.972Z,96918.41
2023-03-19T16:19:27.253Z,96924.34
2023-03-19T16:21:55.524Z,96922.20
2023-03-19T16:24:37.640Z,96919.58
2023-03-19T16:27:12.643Z,96925.92
2023-03-19T16:29:42.390Z,96927.96
2023-03-19T16:32:24.252Z,96934.63
2023-03-19T16:34:55.151Z,96937.70
2023-03-19T16:37:39.951Z,96938.85
2023-03-19T16:40:15.930Z,96945.97
2023-03-19T16:42:44.852Z,96950.87
2023-03-19T16:45:19.180Z,96953.29
2023-03-19T16:47:51.478Z,96957.12
2023-03-19T16:50:21.533Z,96959.63
2023-03-19T16:52:50.186Z,96963.08
2023-03-19T16:55:20.058Z,96962.77
2023-03-19T16:57:51.181Z,96959.52
2023-03-19T17:00:20.645Z,96957.23
2023-03-19T17:02:49.275Z,96956.48
2023-03-19T17:05:17.513Z,96960.38
2023-03-19T17:08:04.731Z,96964.00
2023-03-19T17:11:04.820Z,96966.63
2023-03-19T17:13:35.489Z,96966.89
2023-03-19T17:16:05.787Z,96969.77
2023-03-19T17:18:38.897Z,96972.67
2023-03-19T17:21:07.110Z,96977.77
2023-03-19T17:23:35.460Z,96976.89
2023-03-19T17:26:21.258Z,96973.39
2023-03-19T17:29:14.353Z,96972.38
2023-03-19T17:31:44.851Z,96971.00
2023-03-19T17:34:16.595Z,96970.27
2023-03-19T17:36:52.149Z,96968.83
2023-03-19T17:39:20.504Z,96966.75
2023-03-19T17:41:48.494Z,96968.35
2023-03-19T17:44:16.669Z,96971.01
2023-03-19T17:46:46.256Z,96966.32
2023-03-19T17:49:22.548Z,96963.80
2023-03-19T17:51:54.372Z,96964.27
2023-03-19T17:54:22.615Z,96969.82
2023-03-19T17:56:50.864Z,96970.86
2023-03-19T17:59:18.955Z,96967.61
2023-03-19T18:01:49.860Z,96968.27
2023-03-19T18:04:18.947Z,96967.60
2023-03-19T18:06:49.892Z,96962.40
2023-03-19T18:09:28.983Z,96962.32
2023-03-19T18:11:57.059Z,96961.96
2023-03-19T18:14:26.323Z,96962.66
2023-03-19T18:16:54.364Z,96961.23
2023-03-19T18:19:30.325Z,96963.29
2023-03-19T18:21:58.895Z,96966.33
2023-03-19T18:24:26.895Z,96968.45
2023-03-19T18:26:55.144Z,96972.95
2023-03-19T18:29:23.231Z,96969.44
2023-03-19T18:31:51.549Z,96974.38
2023-03-19T18:34:20.035Z,96972.37
2023-03-19T18:36:48.577Z,96973.43
2023-03-19T18:39:16.581Z,96970.98
2023-03-19T18:41:44.736Z,96972.80
2023-03-19T18:44:14.202Z,96973.20
2023-03-19T18:46:43.021Z,96967.71
2023-03-19T18:49:24.919Z,96963.20
2023-03-19T18:52:02.520Z,96962.42
2023-03-19T18:54:32.395Z,96957.30
2023-03-19T18:57:06.132Z,96961.55
2023-03-19T18:59:34.418Z,96963.73
2023-03-19T19:02:17.769Z,96968.42
2023-03-19T19:04:51.783Z,96970.88
2023-03-19T19:07:19.941Z,96972.33
2023-03-19T19:09:48.482Z,96978.91
2023-03-19T19:12:18.882Z,96984.93
2023-03-19T19:14:48.570Z,96983.64
2023-03-19T19:17:20.411Z,96986.02
2023-03-19T19:19:51.269Z,96983.34
2023-03-19T19:22:20.390Z,96979.85
2023-03-19T19:24:59.026Z,96978.38
2023-03-19T19:27:27.448Z,96991.48
2023-03-19T19:29:55.778Z,96997.68
2023-03-19T19:32:27.699Z,96995.45
2023-03-19T19:34:56.134Z,96992.70
2023-03-19T19:37:25.440Z,96993.68
2023-03-19T19:39:53.650Z,96989.17
2023-03-19T19:42:24.419Z,96986.88
2023-03-19T19:45:00.040Z,96978.84
2023-03-19T19:47:44.218Z,96977.95
2023-03-19T19:50:19.302Z,96980.23
2023-03-19T19:52:48.848Z,96981.23
2023-03-19T19:55:17.931Z,96980.36
2023-03-19T19:57:48.753Z,96976.87
2023-03-19T20:00:30.196Z,96969.44
2023-03-19T20:03:01.984Z,96972.77
2023-03-19T20:05:33.962Z,96971.31
2023-03-19T20:08:02.946Z,96974.33
2023-03-19T20:10:46.069Z,96978.44
2023-03-19T20:13:29.255Z,96981.42
2023-03-19T20:16:09.342Z,96984.25
2023-03-19T20:18:43.707Z,96985.68
2023-03-19T20:21:13.188Z,96983.98
2023-03-19T20:23:49.746Z,96977.14
2023-03-19T20:26:20.755Z,96968.10
2023-03-19T20:28:49.576Z,96968.11
2023-03-19T20:31:29.980Z,96967.44
2023-03-19T20:33:58.671Z,96977.11
2023-03-19T20:36:27.268Z,96985.23
2023-03-19T20:38:55.863Z,96985.84
2023-03-19T20:41:34.809Z,96980.82
2023-03-19T20:44:08.362Z,96982.49
2023-03-19T20:46:50.459Z,96988.98
2023-03-19T20:50:18.734Z,96988.10
2023-03-19T20:52:47.770Z,96988.39
2023-03-19T20:55:24.085Z,96987.81
2023-03-19T20:57:53.660Z,96985.09
2023-03-19T21:00:24.413Z,96990.94
2023-03-19T21:02:53.636Z,96987.58
2023-03-19T21:05:30.609Z,96984.98
2023-03-19T21:08:01.608Z,96982.45
2023-03-19T21:10:34.960Z,96977.30
2023-03-19T21:13:04.621Z,96976.45
2023-03-19T21:15:33.208Z,96977.00
2023-03-19T21:18:09.412Z,96973.27
2023-03-19T21:20:58.155Z,96973.83
2023-03-19T21:23:38.366Z,96972.91
2023-03-19T21:26:15.673Z,96973.27
2023-03-19T21:28:44.550Z,96979.83
2023-03-19T21:31:18.354Z,96985.09
2023-03-19T21:33:53.055Z,96984.13
2023-03-19T21:36:21.845Z,96978.10
2023-03-19T21:38:51.846Z,96975.80
2023-03-19T21:41:25.066Z,96973.21
2023-03-19T21:43:57.930Z,96971.94
2023-03-19T21:46:27.922Z,96969.79
2023-03-19T21:48:57.533Z,96966.08
2023-03-19T21:51:27.279Z,96968.98
2023-03-19T21:53:56.964Z,96968.46
2023-03-19T21:56:32.896Z,96969.64
2023-03-19T21:59:02.431Z,96980.05
2023-03-19T22:01:31.291Z,96980.27
2023-03-19T22:04:03.442Z,96982.13
2023-03-19T22:06:32.095Z,96981.14
2023-03-19T22:09:00.659Z,96980.43
2023-03-19T22:11:30.690Z,96976.04
2023-03-19T22:14:13.996Z,96975.97
2023-03-19T22:16:42.670Z,96977.39
2023-03-19T22:21:56.609Z,96972.00
2023-03-19T22:24:24.893Z,96968.20
2023-03-19T22:27:10.865Z,96966.23
2023-03-19T22:29:47.010Z,96964.63
2023-03-19T22:32:17.390Z,96967.41
2023-03-19T22:34:47.100Z,96967.52
2023-03-19T22:37:26.483Z,96967.33
2023-03-19T22:39:54.621Z,96966.66
2023-03-19T22:42:26.539Z,96967.48
2023-03-19T22:44:55.029Z,96966.39
2023-03-19T22:47:26.286Z,96970.61
2023-03-19T22:49:57.842Z,96973.86
2023-03-19T22:52:26.489Z,96967.67
2023-03-19T22:54:55.691Z,96971.48
2023-03-19T22:57:24.162Z,96971.80
2023-03-19T22:59:52.375Z,96969.95
2023-03-19T23:02:20.547Z,96969.05
2023-03-19T23:04:49.047Z,96967.08
2023-03-19T23:07:17.640Z,96972.23
2023-03-19T23:09:46.303Z,96967.55
2023-03-19T23:12:18.679Z,96961.39
2023-03-19T23:14:47.797Z,96957.52
2023-03-19T23:17:20.627Z,96957.70
2023-03-19T23:20:17.153Z,96956.73
2023-03-19T23:22:48.813Z,96955.97
2023-03-19T23:25:18.546Z,96957.78
2023-03-19T23:27:47.208Z,96956.56
2023-03-19T23:30:23.232Z,96958.85
2023-03-19T23:32:54.659Z,96960.88
2023-03-19T23:35:24.995Z,96958.11
2023-03-19T23:37:55.563Z,96956.25
2023-03-19T23:40:32.617Z,96958.81
2023-03-19T23:43:04.928Z,96958.49
2023-03-19T23:45:38.107Z,96952.67
2023-03-19T23:48:10.905Z,96953.40
2023-03-19T23:50:42.952Z,96952.88
2023-03-19T23:53:30.382Z,96950.05
2023-03-19T23:56:00.799Z,96955.86
2023-03-19T23:58:43.350Z,96955.15
